Gannet Bulker — V7TX5 — position and weather

sailwx.info

Track history (hours):
 
Tides and Currents Weather Stations Pressure Air Temp Water Temp Dewpoint Dewpoint Depression Visibility Wind Speed Wind Dir Waves Ship Positions

Gannet Bulker

Last reported at 2018-Jan-21 09:49 UTC. Time now 2018-Jan-23 08:00 UTC.
Position S 30°29' E 031°14'.

Length 190 m; draft 6.2 m.

Type: Cargo ship. MMSI: 538003902.

Date/timePositionNaut miles runAvg speedWind from/ knotsBaromVisibWave heightAir tempDewpointWater temp
2018-Jan-21 09:49S 30°29' E 031°14'311.0
2018-Jan-21 09:30S 30°27' E 031°17'611.4
2018-Jan-21 08:59S 30°22' E 031°22'612.0
2018-Jan-21 08:30S 30°18' E 031°26'611.6
2018-Jan-21 08:00S 30°14' E 031°31'612.1
2018-Jan-21 07:30S 30°09' E 031°35'613.0
2018-Jan-21 07:00S 30°04' E 031°40'713.5
2018-Jan-21 06:30S 29°59' E 031°45'815.7
2018-Jan-21 06:00S 29°54' E 031°52'815.4
2018-Jan-21 05:30S 29°48' E 031°58'814.8
2018-Jan-21 05:00S 29°42' E 032°04'  
Track history (hours):
 
Tides and Currents Weather Stations Pressure Air Temp Water Temp Dewpoint Dewpoint Depression Visibility Wind Speed Wind Dir Waves Ship Positions

Gannet Bulker

Last reported at 2018-Jan-21 09:49 UTC. Time now 2018-Jan-23 08:00 UTC.
Position S 30°29' E 031°14'.

Length 190 m; draft 6.2 m.

Type: Cargo ship. MMSI: 538003902.

Date/timePositionNaut miles runAvg speedWind from/ knotsBaromVisibWave heightAir tempDewpointWater temp
2018-Jan-21 09:49S 30°29' E 031°14'311.0
2018-Jan-21 09:30S 30°27' E 031°17'611.4
2018-Jan-21 08:59S 30°22' E 031°22'612.0
2018-Jan-21 08:30S 30°18' E 031°26'611.6
2018-Jan-21 08:00S 30°14' E 031°31'612.1
2018-Jan-21 07:30S 30°09' E 031°35'613.0
2018-Jan-21 07:00S 30°04' E 031°40'713.5
2018-Jan-21 06:30S 29°59' E 031°45'815.7
2018-Jan-21 06:00S 29°54' E 031°52'815.4
2018-Jan-21 05:30S 29°48' E 031°58'814.8
2018-Jan-21 05:00S 29°42' E 032°04'  

Dump ship's entire track history